sensor_id;sensor_type;location;lat;lon;timestamp;P1;durP1;ratioP1;P2;durP2;ratioP2
4096;SDS011;2062;50.694;7.246;2023-07-28T00:01:31;3.25;;;0.95;;
4096;SDS011;2062;50.694;7.246;2023-07-28T00:03:59;4.97;;;1.17;;
4096;SDS011;2062;50.694;7.246;2023-07-28T00:06:27;3.80;;;1.10;;
4096;SDS011;2062;50.694;7.246;2023-07-28T00:08:54;3.70;;;1.08;;
4096;SDS011;2062;50.694;7.246;2023-07-28T00:11:21;3.55;;;1.20;;
4096;SDS011;2062;50.694;7.246;2023-07-28T00:13:48;5.10;;;1.15;;
4096;SDS011;2062;50.694;7.246;2023-07-28T00:16:14;4.50;;;1.00;;
4096;SDS011;2062;50.694;7.246;2023-07-28T00:18:41;4.10;;;1.13;;
4096;SDS011;2062;50.694;7.246;2023-07-28T00:21:09;3.58;;;1.05;;
4096;SDS011;2062;50.694;7.246;2023-07-28T00:23:36;3.78;;;1.30;;
4096;SDS011;2062;50.694;7.246;2023-07-28T00:26:03;4.38;;;1.20;;
4096;SDS011;2062;50.694;7.246;2023-07-28T00:28:29;3.88;;;1.33;;
4096;SDS011;2062;50.694;7.246;2023-07-28T00:30:56;4.70;;;1.30;;
4096;SDS011;2062;50.694;7.246;2023-07-28T00:33:23;5.05;;;1.20;;
4096;SDS011;2062;50.694;7.246;2023-07-28T00:35:50;4.65;;;1.25;;
4096;SDS011;2062;50.694;7.246;2023-07-28T00:38:18;3.95;;;1.10;;
4096;SDS011;2062;50.694;7.246;2023-07-28T00:40:45;4.13;;;1.08;;
4096;SDS011;2062;50.694;7.246;2023-07-28T00:43:12;3.57;;;1.20;;
4096;SDS011;2062;50.694;7.246;2023-07-28T00:45:39;6.53;;;1.20;;
4096;SDS011;2062;50.694;7.246;2023-07-28T00:48:07;3.40;;;0.88;;
4096;SDS011;2062;50.694;7.246;2023-07-28T00:50:38;3.80;;;1.10;;
4096;SDS011;2062;50.694;7.246;2023-07-28T00:53:05;5.65;;;1.23;;
4096;SDS011;2062;50.694;7.246;2023-07-28T00:55:34;4.43;;;1.00;;
4096;SDS011;2062;50.694;7.246;2023-07-28T00:58:01;4.25;;;1.30;;
4096;SDS011;2062;50.694;7.246;2023-07-28T01:00:28;3.58;;;0.98;;
4096;SDS011;2062;50.694;7.246;2023-07-28T01:02:55;3.33;;;0.95;;
4096;SDS011;2062;50.694;7.246;2023-07-28T01:05:22;5.75;;;1.10;;
4096;SDS011;2062;50.694;7.246;2023-07-28T01:07:58;3.30;;;1.00;;
4096;SDS011;2062;50.694;7.246;2023-07-28T01:10:30;3.97;;;1.15;;
4096;SDS011;2062;50.694;7.246;2023-07-28T01:12:59;3.70;;;1.13;;
4096;SDS011;2062;50.694;7.246;2023-07-28T01:15:26;4.40;;;1.13;;
4096;SDS011;2062;50.694;7.246;2023-07-28T01:17:53;3.63;;;1.00;;
4096;SDS011;2062;50.694;7.246;2023-07-28T01:20:20;3.30;;;0.93;;
4096;SDS011;2062;50.694;7.246;2023-07-28T01:22:53;3.63;;;1.20;;
4096;SDS011;2062;50.694;7.246;2023-07-28T01:25:32;3.38;;;1.10;;
4096;SDS011;2062;50.694;7.246;2023-07-28T01:28:11;3.60;;;1.10;;
4096;SDS011;2062;50.694;7.246;2023-07-28T01:30:39;3.95;;;0.95;;
4096;SDS011;2062;50.694;7.246;2023-07-28T01:33:06;5.00;;;0.90;;
4096;SDS011;2062;50.694;7.246;2023-07-28T01:35:35;3.70;;;1.10;;
4096;SDS011;2062;50.694;7.246;2023-07-28T01:38:03;3.90;;;1.00;;
4096;SDS011;2062;50.694;7.246;2023-07-28T01:40:30;3.60;;;1.08;;
4096;SDS011;2062;50.694;7.246;2023-07-28T01:42:57;3.50;;;0.90;;
4096;SDS011;2062;50.694;7.246;2023-07-28T01:45:25;3.03;;;0.80;;
4096;SDS011;2062;50.694;7.246;2023-07-28T01:47:52;4.68;;;0.90;;
4096;SDS011;2062;50.694;7.246;2023-07-28T01:50:19;4.15;;;1.10;;
4096;SDS011;2062;50.694;7.246;2023-07-28T01:52:45;4.72;;;1.00;;
4096;SDS011;2062;50.694;7.246;2023-07-28T01:55:12;3.80;;;1.15;;
4096;SDS011;2062;50.694;7.246;2023-07-28T01:57:39;3.23;;;1.00;;
4096;SDS011;2062;50.694;7.246;2023-07-28T02:00:15;5.50;;;0.80;;
4096;SDS011;2062;50.694;7.246;2023-07-28T02:02:44;3.20;;;0.98;;
4096;SDS011;2062;50.694;7.246;2023-07-28T02:05:11;4.25;;;1.00;;
4096;SDS011;2062;50.694;7.246;2023-07-28T02:07:38;3.63;;;1.10;;
4096;SDS011;2062;50.694;7.246;2023-07-28T02:10:05;3.93;;;1.00;;
4096;SDS011;2062;50.694;7.246;2023-07-28T02:12:32;3.30;;;0.90;;
4096;SDS011;2062;50.694;7.246;2023-07-28T02:14:59;3.13;;;0.90;;
4096;SDS011;2062;50.694;7.246;2023-07-28T02:17:26;3.22;;;0.90;;
4096;SDS011;2062;50.694;7.246;2023-07-28T02:19:54;3.40;;;1.00;;
4096;SDS011;2062;50.694;7.246;2023-07-28T02:22:21;5.70;;;0.90;;
4096;SDS011;2062;50.694;7.246;2023-07-28T02:24:48;2.97;;;0.93;;
4096;SDS011;2062;50.694;7.246;2023-07-28T02:27:15;3.40;;;1.10;;
4096;SDS011;2062;50.694;7.246;2023-07-28T02:29:41;2.85;;;0.75;;
4096;SDS011;2062;50.694;7.246;2023-07-28T02:32:08;3.22;;;1.02;;
4096;SDS011;2062;50.694;7.246;2023-07-28T02:34:35;3.50;;;1.20;;
4096;SDS011;2062;50.694;7.246;2023-07-28T02:37:03;3.50;;;0.90;;
4096;SDS011;2062;50.694;7.246;2023-07-28T02:39:30;3.33;;;1.00;;
4096;SDS011;2062;50.694;7.246;2023-07-28T02:41:57;3.40;;;1.00;;
4096;SDS011;2062;50.694;7.246;2023-07-28T02:44:24;3.50;;;0.93;;
4096;SDS011;2062;50.694;7.246;2023-07-28T02:46:51;3.10;;;0.87;;
4096;SDS011;2062;50.694;7.246;2023-07-28T02:49:17;3.13;;;0.90;;
4096;SDS011;2062;50.694;7.246;2023-07-28T02:51:44;3.40;;;1.02;;
4096;SDS011;2062;50.694;7.246;2023-07-28T02:54:12;2.97;;;0.82;;
4096;SDS011;2062;50.694;7.246;2023-07-28T02:56:39;5.40;;;1.00;;
4096;SDS011;2062;50.694;7.246;2023-07-28T02:59:06;3.50;;;1.00;;
4096;SDS011;2062;50.694;7.246;2023-07-28T03:01:33;3.45;;;0.90;;
4096;SDS011;2062;50.694;7.246;2023-07-28T03:04:00;3.40;;;1.00;;
4096;SDS011;2062;50.694;7.246;2023-07-28T03:06:27;3.80;;;1.00;;
4096;SDS011;2062;50.694;7.246;2023-07-28T03:08:54;3.50;;;1.02;;
4096;SDS011;2062;50.694;7.246;2023-07-28T03:11:22;3.30;;;1.00;;
4096;SDS011;2062;50.694;7.246;2023-07-28T03:13:49;4.85;;;1.00;;
4096;SDS011;2062;50.694;7.246;2023-07-28T03:16:16;3.80;;;1.20;;
4096;SDS011;2062;50.694;7.246;2023-07-28T03:18:43;3.15;;;0.93;;
4096;SDS011;2062;50.694;7.246;2023-07-28T03:21:09;3.70;;;1.13;;
4096;SDS011;2062;50.694;7.246;2023-07-28T03:23:36;3.27;;;1.00;;
4096;SDS011;2062;50.694;7.246;2023-07-28T03:26:03;4.20;;;0.93;;
4096;SDS011;2062;50.694;7.246;2023-07-28T03:28:31;3.47;;;0.90;;
4096;SDS011;2062;50.694;7.246;2023-07-28T03:30:58;3.40;;;0.90;;
4096;SDS011;2062;50.694;7.246;2023-07-28T03:33:25;3.10;;;0.90;;
4096;SDS011;2062;50.694;7.246;2023-07-28T03:35:51;3.23;;;0.90;;
4096;SDS011;2062;50.694;7.246;2023-07-28T03:38:18;3.55;;;0.88;;
4096;SDS011;2062;50.694;7.246;2023-07-28T03:40:45;5.03;;;0.90;;
4096;SDS011;2062;50.694;7.246;2023-07-28T03:43:12;4.22;;;0.95;;
4096;SDS011;2062;50.694;7.246;2023-07-28T03:45:40;3.38;;;0.80;;
4096;SDS011;2062;50.694;7.246;2023-07-28T03:48:07;3.97;;;0.80;;
4096;SDS011;2062;50.694;7.246;2023-07-28T03:50:34;2.75;;;0.63;;
4096;SDS011;2062;50.694;7.246;2023-07-28T03:53:00;2.55;;;0.65;;
4096;SDS011;2062;50.694;7.246;2023-07-28T03:55:27;3.05;;;0.80;;
4096;SDS011;2062;50.694;7.246;2023-07-28T03:57:54;3.33;;;0.70;;
4096;SDS011;2062;50.694;7.246;2023-07-28T04:00:21;2.53;;;0.60;;
4096;SDS011;2062;50.694;7.246;2023-07-28T04:02:49;3.75;;;0.70;;
4096;SDS011;2062;50.694;7.246;2023-07-28T04:05:16;2.97;;;0.80;;
4096;SDS011;2062;50.694;7.246;2023-07-28T04:07:43;3.13;;;0.80;;
4096;SDS011;2062;50.694;7.246;2023-07-28T04:10:10;4.57;;;0.80;;
4096;SDS011;2062;50.694;7.246;2023-07-28T04:12:37;3.77;;;0.80;;
4096;SDS011;2062;50.694;7.246;2023-07-28T04:15:04;3.72;;;0.90;;
4096;SDS011;2062;50.694;7.246;2023-07-28T04:17:31;2.92;;;0.70;;
4096;SDS011;2062;50.694;7.246;2023-07-28T04:19:59;2.58;;;0.70;;
4096;SDS011;2062;50.694;7.246;2023-07-28T04:22:27;3.03;;;0.80;;
4096;SDS011;2062;50.694;7.246;2023-07-28T04:24:54;3.60;;;0.90;;
4096;SDS011;2062;50.694;7.246;2023-07-28T04:27:20;3.25;;;0.88;;
4096;SDS011;2062;50.694;7.246;2023-07-28T04:29:47;2.90;;;0.85;;
4096;SDS011;2062;50.694;7.246;2023-07-28T04:32:14;3.20;;;0.90;;
4096;SDS011;2062;50.694;7.246;2023-07-28T04:34:41;3.05;;;0.77;;
4096;SDS011;2062;50.694;7.246;2023-07-28T04:37:09;3.17;;;0.83;;
4096;SDS011;2062;50.694;7.246;2023-07-28T04:39:36;3.42;;;0.80;;
4096;SDS011;2062;50.694;7.246;2023-07-28T04:42:03;3.40;;;0.70;;
4096;SDS011;2062;50.694;7.246;2023-07-28T04:44:30;2.95;;;0.75;;
4096;SDS011;2062;50.694;7.246;2023-07-28T04:46:56;4.35;;;0.80;;
4096;SDS011;2062;50.694;7.246;2023-07-28T04:49:23;3.13;;;0.90;;
4096;SDS011;2062;50.694;7.246;2023-07-28T04:51:50;4.30;;;0.70;;
4096;SDS011;2062;50.694;7.246;2023-07-28T04:54:18;3.38;;;0.90;;
4096;SDS011;2062;50.694;7.246;2023-07-28T04:56:45;3.53;;;1.00;;
4096;SDS011;2062;50.694;7.246;2023-07-28T04:59:14;3.50;;;1.05;;
4096;SDS011;2062;50.694;7.246;2023-07-28T05:01:41;2.87;;;0.83;;
4096;SDS011;2062;50.694;7.246;2023-07-28T05:04:08;3.60;;;0.82;;
4096;SDS011;2062;50.694;7.246;2023-07-28T05:06:35;2.70;;;0.60;;
4096;SDS011;2062;50.694;7.246;2023-07-28T05:09:02;3.70;;;0.80;;
4096;SDS011;2062;50.694;7.246;2023-07-28T05:11:30;3.45;;;0.70;;
4096;SDS011;2062;50.694;7.246;2023-07-28T05:13:57;2.90;;;0.60;;
4096;SDS011;2062;50.694;7.246;2023-07-28T05:16:23;3.00;;;0.85;;
4096;SDS011;2062;50.694;7.246;2023-07-28T05:18:50;2.70;;;0.70;;
4096;SDS011;2062;50.694;7.246;2023-07-28T05:21:17;3.47;;;1.05;;
4096;SDS011;2062;50.694;7.246;2023-07-28T05:23:43;4.03;;;0.95;;
4096;SDS011;2062;50.694;7.246;2023-07-28T05:26:10;3.00;;;0.80;;
4096;SDS011;2062;50.694;7.246;2023-07-28T05:28:38;3.53;;;0.88;;
4096;SDS011;2062;50.694;7.246;2023-07-28T05:31:05;6.60;;;1.00;;
4096;SDS011;2062;50.694;7.246;2023-07-28T05:33:32;3.08;;;0.82;;
4096;SDS011;2062;50.694;7.246;2023-07-28T05:35:59;3.08;;;0.80;;
4096;SDS011;2062;50.694;7.246;2023-07-28T05:38:26;3.50;;;0.73;;
4096;SDS011;2062;50.694;7.246;2023-07-28T05:40:56;2.65;;;0.80;;
4096;SDS011;2062;50.694;7.246;2023-07-28T05:43:23;2.90;;;0.73;;
4096;SDS011;2062;50.694;7.246;2023-07-28T05:45:51;3.05;;;0.90;;
4096;SDS011;2062;50.694;7.246;2023-07-28T05:48:18;4.25;;;0.90;;
4096;SDS011;2062;50.694;7.246;2023-07-28T05:50:44;3.37;;;0.80;;
4096;SDS011;2062;50.694;7.246;2023-07-28T05:53:11;3.08;;;0.77;;
4096;SDS011;2062;50.694;7.246;2023-07-28T05:55:39;3.38;;;1.00;;
4096;SDS011;2062;50.694;7.246;2023-07-28T05:58:06;3.85;;;0.98;;
4096;SDS011;2062;50.694;7.246;2023-07-28T06:00:33;3.83;;;0.98;;
4096;SDS011;2062;50.694;7.246;2023-07-28T06:03:01;5.07;;;0.90;;
4096;SDS011;2062;50.694;7.246;2023-07-28T06:05:28;3.35;;;0.90;;
4096;SDS011;2062;50.694;7.246;2023-07-28T06:07:55;3.75;;;0.93;;
4096;SDS011;2062;50.694;7.246;2023-07-28T06:10:22;3.55;;;0.85;;
4096;SDS011;2062;50.694;7.246;2023-07-28T06:12:49;3.25;;;0.90;;
4096;SDS011;2062;50.694;7.246;2023-07-28T06:15:15;3.30;;;0.80;;
4096;SDS011;2062;50.694;7.246;2023-07-28T06:17:42;3.13;;;0.80;;
4096;SDS011;2062;50.694;7.246;2023-07-28T06:20:11;3.00;;;0.90;;
4096;SDS011;2062;50.694;7.246;2023-07-28T06:22:37;5.07;;;1.02;;
4096;SDS011;2062;50.694;7.246;2023-07-28T06:25:04;3.10;;;0.90;;
4096;SDS011;2062;50.694;7.246;2023-07-28T06:27:32;4.93;;;1.07;;
4096;SDS011;2062;50.694;7.246;2023-07-28T06:29:58;4.28;;;1.13;;
4096;SDS011;2062;50.694;7.246;2023-07-28T06:32:25;5.28;;;1.60;;
4096;SDS011;2062;50.694;7.246;2023-07-28T06:34:53;3.97;;;0.80;;
4096;SDS011;2062;50.694;7.246;2023-07-28T06:37:21;3.17;;;0.90;;
4096;SDS011;2062;50.694;7.246;2023-07-28T06:39:48;3.37;;;0.80;;
4096;SDS011;2062;50.694;7.246;2023-07-28T06:42:16;3.00;;;0.88;;
4096;SDS011;2062;50.694;7.246;2023-07-28T06:44:48;3.63;;;1.00;;
4096;SDS011;2062;50.694;7.246;2023-07-28T06:47:15;3.65;;;0.90;;
4096;SDS011;2062;50.694;7.246;2023-07-28T06:49:42;2.90;;;0.88;;
4096;SDS011;2062;50.694;7.246;2023-07-28T06:52:09;3.40;;;0.77;;
4096;SDS011;2062;50.694;7.246;2023-07-28T06:54:37;2.78;;;0.63;;
4096;SDS011;2062;50.694;7.246;2023-07-28T06:57:04;4.43;;;0.95;;
4096;SDS011;2062;50.694;7.246;2023-07-28T06:59:32;3.28;;;0.80;;
4096;SDS011;2062;50.694;7.246;2023-07-28T07:01:59;3.90;;;0.98;;
4096;SDS011;2062;50.694;7.246;2023-07-28T07:04:26;2.83;;;0.63;;
4096;SDS011;2062;50.694;7.246;2023-07-28T07:06:53;5.55;;;0.90;;
4096;SDS011;2062;50.694;7.246;2023-07-28T07:09:19;2.80;;;0.68;;
4096;SDS011;2062;50.694;7.246;2023-07-28T07:11:47;2.42;;;0.60;;
4096;SDS011;2062;50.694;7.246;2023-07-28T07:14:14;4.55;;;0.80;;
4096;SDS011;2062;50.694;7.246;2023-07-28T07:16:41;4.20;;;0.90;;
4096;SDS011;2062;50.694;7.246;2023-07-28T07:19:08;3.78;;;0.80;;
4096;SDS011;2062;50.694;7.246;2023-07-28T07:21:35;3.15;;;0.80;;
4096;SDS011;2062;50.694;7.246;2023-07-28T07:24:02;2.88;;;0.60;;
4096;SDS011;2062;50.694;7.246;2023-07-28T07:26:29;2.80;;;0.70;;
4096;SDS011;2062;50.694;7.246;2023-07-28T07:28:58;4.70;;;1.03;;
4096;SDS011;2062;50.694;7.246;2023-07-28T07:31:25;3.47;;;0.60;;
4096;SDS011;2062;50.694;7.246;2023-07-28T07:33:52;2.85;;;0.82;;
4096;SDS011;2062;50.694;7.246;2023-07-28T07:36:19;2.95;;;0.73;;
4096;SDS011;2062;50.694;7.246;2023-07-28T07:38:46;3.50;;;0.90;;
4096;SDS011;2062;50.694;7.246;2023-07-28T07:41:14;4.03;;;0.97;;
4096;SDS011;2062;50.694;7.246;2023-07-28T07:43:44;3.10;;;0.90;;
4096;SDS011;2062;50.694;7.246;2023-07-28T07:46:13;4.28;;;0.90;;
4096;SDS011;2062;50.694;7.246;2023-07-28T07:48:40;4.03;;;1.08;;
4096;SDS011;2062;50.694;7.246;2023-07-28T07:51:07;3.33;;;0.80;;
4096;SDS011;2062;50.694;7.246;2023-07-28T07:53:34;3.27;;;0.90;;
4096;SDS011;2062;50.694;7.246;2023-07-28T07:56:02;3.33;;;0.98;;
4096;SDS011;2062;50.694;7.246;2023-07-28T07:58:29;3.15;;;0.80;;
4096;SDS011;2062;50.694;7.246;2023-07-28T08:00:56;2.95;;;0.80;;
4096;SDS011;2062;50.694;7.246;2023-07-28T08:03:24;2.80;;;0.70;;
4096;SDS011;2062;50.694;7.246;2023-07-28T08:05:52;4.03;;;0.70;;
4096;SDS011;2062;50.694;7.246;2023-07-28T08:08:19;2.97;;;0.70;;
4096;SDS011;2062;50.694;7.246;2023-07-28T08:10:46;3.33;;;0.90;;
4096;SDS011;2062;50.694;7.246;2023-07-28T08:13:13;2.83;;;0.70;;
4096;SDS011;2062;50.694;7.246;2023-07-28T08:15:40;3.00;;;0.80;;
4096;SDS011;2062;50.694;7.246;2023-07-28T08:18:09;2.67;;;0.67;;
4096;SDS011;2062;50.694;7.246;2023-07-28T08:20:38;2.67;;;0.63;;
4096;SDS011;2062;50.694;7.246;2023-07-28T08:23:05;2.97;;;0.85;;
4096;SDS011;2062;50.694;7.246;2023-07-28T08:25:32;2.53;;;0.60;;
4096;SDS011;2062;50.694;7.246;2023-07-28T08:27:59;2.72;;;0.70;;
4096;SDS011;2062;50.694;7.246;2023-07-28T08:30:26;2.63;;;0.70;;
4096;SDS011;2062;50.694;7.246;2023-07-28T08:32:53;2.50;;;0.80;;
4096;SDS011;2062;50.694;7.246;2023-07-28T08:35:20;2.78;;;0.80;;
4096;SDS011;2062;50.694;7.246;2023-07-28T08:37:48;3.78;;;0.77;;
4096;SDS011;2062;50.694;7.246;2023-07-28T08:40:16;2.50;;;0.70;;
4096;SDS011;2062;50.694;7.246;2023-07-28T08:42:44;3.73;;;0.80;;
4096;SDS011;2062;50.694;7.246;2023-07-28T08:45:11;2.35;;;0.60;;
4096;SDS011;2062;50.694;7.246;2023-07-28T08:47:38;2.72;;;0.75;;
4096;SDS011;2062;50.694;7.246;2023-07-28T08:50:05;2.45;;;0.50;;
4096;SDS011;2062;50.694;7.246;2023-07-28T08:52:33;3.92;;;0.65;;
4096;SDS011;2062;50.694;7.246;2023-07-28T08:55:01;3.53;;;0.70;;
4096;SDS011;2062;50.694;7.246;2023-07-28T08:57:28;2.90;;;0.52;;
4096;SDS011;2062;50.694;7.246;2023-07-28T08:59:55;3.50;;;0.70;;
4096;SDS011;2062;50.694;7.246;2023-07-28T09:02:22;4.05;;;0.60;;
4096;SDS011;2062;50.694;7.246;2023-07-28T09:04:49;2.38;;;0.57;;
4096;SDS011;2062;50.694;7.246;2023-07-28T09:07:16;2.67;;;0.60;;
4096;SDS011;2062;50.694;7.246;2023-07-28T09:09:42;4.57;;;0.68;;
4096;SDS011;2062;50.694;7.246;2023-07-28T09:12:12;2.88;;;0.60;;
4096;SDS011;2062;50.694;7.246;2023-07-28T09:14:39;2.33;;;0.60;;
4096;SDS011;2062;50.694;7.246;2023-07-28T09:17:07;2.30;;;0.60;;
4096;SDS011;2062;50.694;7.246;2023-07-28T09:19:35;2.37;;;0.50;;
4096;SDS011;2062;50.694;7.246;2023-07-28T09:22:14;2.60;;;0.50;;
4096;SDS011;2062;50.694;7.246;2023-07-28T09:24:41;2.58;;;0.68;;
4096;SDS011;2062;50.694;7.246;2023-07-28T09:27:12;2.50;;;0.60;;
4096;SDS011;2062;50.694;7.246;2023-07-28T09:29:47;2.83;;;0.60;;
4096;SDS011;2062;50.694;7.246;2023-07-28T09:32:15;2.60;;;0.60;;
4096;SDS011;2062;50.694;7.246;2023-07-28T09:34:43;4.82;;;0.70;;
4096;SDS011;2062;50.694;7.246;2023-07-28T09:37:09;4.35;;;0.65;;
4096;SDS011;2062;50.694;7.246;2023-07-28T09:39:38;3.47;;;0.70;;
4096;SDS011;2062;50.694;7.246;2023-07-28T09:42:07;2.08;;;0.43;;
4096;SDS011;2062;50.694;7.246;2023-07-28T09:44:36;2.33;;;0.63;;
4096;SDS011;2062;50.694;7.246;2023-07-28T09:47:03;2.35;;;0.73;;
4096;SDS011;2062;50.694;7.246;2023-07-28T09:49:36;2.40;;;0.60;;
4096;SDS011;2062;50.694;7.246;2023-07-28T09:52:05;2.38;;;0.52;;
4096;SDS011;2062;50.694;7.246;2023-07-28T09:54:38;2.53;;;0.60;;
4096;SDS011;2062;50.694;7.246;2023-07-28T09:57:06;2.30;;;0.60;;
4096;SDS011;2062;50.694;7.246;2023-07-28T09:59:39;2.40;;;0.63;;
4096;SDS011;2062;50.694;7.246;2023-07-28T10:02:08;3.05;;;0.75;;
4096;SDS011;2062;50.694;7.246;2023-07-28T10:04:35;3.47;;;0.95;;
4096;SDS011;2062;50.694;7.246;2023-07-28T10:07:03;4.25;;;0.80;;
4096;SDS011;2062;50.694;7.246;2023-07-28T10:09:32;4.40;;;0.70;;
4096;SDS011;2062;50.694;7.246;2023-07-28T10:11:59;3.17;;;0.60;;
4096;SDS011;2062;50.694;7.246;2023-07-28T10:14:29;2.80;;;0.60;;
4096;SDS011;2062;50.694;7.246;2023-07-28T10:16:58;2.20;;;0.60;;
4096;SDS011;2062;50.694;7.246;2023-07-28T10:19:26;2.47;;;0.63;;
4096;SDS011;2062;50.694;7.246;2023-07-28T10:21:59;2.20;;;0.63;;
4096;SDS011;2062;50.694;7.246;2023-07-28T10:27:28;2.58;;;0.60;;
4096;SDS011;2062;50.694;7.246;2023-07-28T10:29:56;2.50;;;0.70;;
4096;SDS011;2062;50.694;7.246;2023-07-28T10:32:28;2.65;;;0.70;;
4096;SDS011;2062;50.694;7.246;2023-07-28T10:35:01;2.97;;;0.70;;
4096;SDS011;2062;50.694;7.246;2023-07-28T10:37:32;2.42;;;0.68;;
4096;SDS011;2062;50.694;7.246;2023-07-28T10:42:52;2.58;;;0.60;;
4096;SDS011;2062;50.694;7.246;2023-07-28T10:45:21;3.05;;;0.70;;
4096;SDS011;2062;50.694;7.246;2023-07-28T10:47:51;2.40;;;0.50;;
4096;SDS011;2062;50.694;7.246;2023-07-28T10:50:20;2.63;;;0.63;;
4096;SDS011;2062;50.694;7.246;2023-07-28T10:52:48;2.72;;;0.63;;
4096;SDS011;2062;50.694;7.246;2023-07-28T10:55:16;3.30;;;0.47;;
4096;SDS011;2062;50.694;7.246;2023-07-28T10:57:45;2.33;;;0.65;;
4096;SDS011;2062;50.694;7.246;2023-07-28T11:00:14;3.97;;;0.67;;
4096;SDS011;2062;50.694;7.246;2023-07-28T11:02:42;2.30;;;0.60;;
4096;SDS011;2062;50.694;7.246;2023-07-28T11:05:11;2.90;;;0.70;;
4096;SDS011;2062;50.694;7.246;2023-07-28T11:07:40;2.67;;;0.75;;
4096;SDS011;2062;50.694;7.246;2023-07-28T11:10:09;2.50;;;0.63;;
4096;SDS011;2062;50.694;7.246;2023-07-28T11:12:39;2.57;;;0.63;;
4096;SDS011;2062;50.694;7.246;2023-07-28T11:15:08;2.17;;;0.63;;
4096;SDS011;2062;50.694;7.246;2023-07-28T11:17:36;2.50;;;0.80;;
4096;SDS011;2062;50.694;7.246;2023-07-28T11:20:05;2.33;;;0.60;;
4096;SDS011;2062;50.694;7.246;2023-07-28T11:22:42;2.75;;;0.60;;
4096;SDS011;2062;50.694;7.246;2023-07-28T11:25:09;2.40;;;0.60;;
4096;SDS011;2062;50.694;7.246;2023-07-28T11:27:36;2.80;;;0.60;;
4096;SDS011;2062;50.694;7.246;2023-07-28T11:30:06;2.80;;;0.82;;
4096;SDS011;2062;50.694;7.246;2023-07-28T11:32:34;3.63;;;0.70;;
4096;SDS011;2062;50.694;7.246;2023-07-28T11:35:03;2.50;;;0.70;;
4096;SDS011;2062;50.694;7.246;2023-07-28T11:37:30;2.90;;;0.70;;
4096;SDS011;2062;50.694;7.246;2023-07-28T11:40:00;3.50;;;0.55;;
4096;SDS011;2062;50.694;7.246;2023-07-28T11:42:31;2.47;;;0.77;;
4096;SDS011;2062;50.694;7.246;2023-07-28T11:44:59;2.33;;;0.55;;
4096;SDS011;2062;50.694;7.246;2023-07-28T11:47:26;2.60;;;0.80;;
4096;SDS011;2062;50.694;7.246;2023-07-28T11:49:53;2.30;;;0.60;;
4096;SDS011;2062;50.694;7.246;2023-07-28T11:52:19;2.80;;;0.70;;
4096;SDS011;2062;50.694;7.246;2023-07-28T11:54:47;2.42;;;0.60;;
4096;SDS011;2062;50.694;7.246;2023-07-28T11:57:15;2.40;;;0.63;;
4096;SDS011;2062;50.694;7.246;2023-07-28T11:59:42;2.60;;;0.70;;
4096;SDS011;2062;50.694;7.246;2023-07-28T12:02:09;2.30;;;0.70;;
4096;SDS011;2062;50.694;7.246;2023-07-28T12:04:37;2.58;;;0.70;;
4096;SDS011;2062;50.694;7.246;2023-07-28T12:07:09;3.78;;;0.60;;
4096;SDS011;2062;50.694;7.246;2023-07-28T12:09:49;2.38;;;0.60;;
4096;SDS011;2062;50.694;7.246;2023-07-28T12:12:25;3.28;;;0.80;;
4096;SDS011;2062;50.694;7.246;2023-07-28T12:14:53;2.10;;;0.50;;
4096;SDS011;2062;50.694;7.246;2023-07-28T12:17:21;2.92;;;0.60;;
4096;SDS011;2062;50.694;7.246;2023-07-28T12:20:00;2.40;;;0.70;;
4096;SDS011;2062;50.694;7.246;2023-07-28T12:22:33;3.40;;;0.45;;
4096;SDS011;2062;50.694;7.246;2023-07-28T12:24:59;2.90;;;0.57;;
4096;SDS011;2062;50.694;7.246;2023-07-28T12:27:27;3.47;;;0.70;;
4096;SDS011;2062;50.694;7.246;2023-07-28T12:29:54;3.17;;;0.70;;
4096;SDS011;2062;50.694;7.246;2023-07-28T12:32:21;2.60;;;0.70;;
4096;SDS011;2062;50.694;7.246;2023-07-28T12:34:48;4.05;;;0.60;;
4096;SDS011;2062;50.694;7.246;2023-07-28T12:37:16;2.75;;;0.70;;
4096;SDS011;2062;50.694;7.246;2023-07-28T12:39:43;2.97;;;0.70;;
4096;SDS011;2062;50.694;7.246;2023-07-28T12:42:10;2.85;;;0.60;;
4096;SDS011;2062;50.694;7.246;2023-07-28T12:44:39;2.17;;;0.55;;
4096;SDS011;2062;50.694;7.246;2023-07-28T12:47:06;2.95;;;0.68;;
4096;SDS011;2062;50.694;7.246;2023-07-28T12:49:33;2.65;;;0.70;;
4096;SDS011;2062;50.694;7.246;2023-07-28T12:52:01;2.30;;;0.50;;
4096;SDS011;2062;50.694;7.246;2023-07-28T12:54:31;2.22;;;0.63;;
4096;SDS011;2062;50.694;7.246;2023-07-28T12:56:59;2.97;;;0.70;;
4096;SDS011;2062;50.694;7.246;2023-07-28T12:59:26;2.60;;;0.80;;
4096;SDS011;2062;50.694;7.246;2023-07-28T13:01:56;3.30;;;0.80;;
4096;SDS011;2062;50.694;7.246;2023-07-28T13:04:22;3.23;;;0.70;;
4096;SDS011;2062;50.694;7.246;2023-07-28T13:06:49;2.65;;;0.80;;
4096;SDS011;2062;50.694;7.246;2023-07-28T13:09:16;3.03;;;0.80;;
4096;SDS011;2062;50.694;7.246;2023-07-28T13:11:43;3.30;;;0.80;;
4096;SDS011;2062;50.694;7.246;2023-07-28T13:14:09;2.28;;;0.77;;
4096;SDS011;2062;50.694;7.246;2023-07-28T13:16:36;2.60;;;0.80;;
4096;SDS011;2062;50.694;7.246;2023-07-28T13:19:04;2.95;;;0.68;;
4096;SDS011;2062;50.694;7.246;2023-07-28T13:21:31;2.42;;;0.73;;
4096;SDS011;2062;50.694;7.246;2023-07-28T13:23:58;3.00;;;0.63;;
4096;SDS011;2062;50.694;7.246;2023-07-28T13:26:25;2.65;;;0.77;;
4096;SDS011;2062;50.694;7.246;2023-07-28T13:28:52;2.40;;;0.67;;
4096;SDS011;2062;50.694;7.246;2023-07-28T13:31:19;2.40;;;0.70;;
4096;SDS011;2062;50.694;7.246;2023-07-28T13:33:46;2.55;;;0.80;;
4096;SDS011;2062;50.694;7.246;2023-07-28T13:36:14;2.60;;;0.63;;
4096;SDS011;2062;50.694;7.246;2023-07-28T13:38:41;3.70;;;0.80;;
4096;SDS011;2062;50.694;7.246;2023-07-28T13:41:08;2.60;;;0.70;;
4096;SDS011;2062;50.694;7.246;2023-07-28T13:43:35;3.60;;;0.80;;
4096;SDS011;2062;50.694;7.246;2023-07-28T13:46:02;2.65;;;0.90;;
4096;SDS011;2062;50.694;7.246;2023-07-28T13:48:30;3.40;;;1.00;;
4096;SDS011;2062;50.694;7.246;2023-07-28T13:50:57;2.80;;;1.02;;
4096;SDS011;2062;50.694;7.246;2023-07-28T13:53:25;3.87;;;1.00;;
4096;SDS011;2062;50.694;7.246;2023-07-28T13:55:53;3.50;;;1.20;;
4096;SDS011;2062;50.694;7.246;2023-07-28T13:58:20;3.55;;;1.20;;
4096;SDS011;2062;50.694;7.246;2023-07-28T14:00:47;3.20;;;1.20;;
4096;SDS011;2062;50.694;7.246;2023-07-28T14:03:14;3.55;;;1.20;;
4096;SDS011;2062;50.694;7.246;2023-07-28T14:05:41;3.70;;;1.20;;
4096;SDS011;2062;50.694;7.246;2023-07-28T14:08:08;5.57;;;1.20;;
4096;SDS011;2062;50.694;7.246;2023-07-28T14:10:37;6.53;;;1.70;;
4096;SDS011;2062;50.694;7.246;2023-07-28T14:13:04;5.72;;;1.35;;
4096;SDS011;2062;50.694;7.246;2023-07-28T14:15:30;3.45;;;1.38;;
4096;SDS011;2062;50.694;7.246;2023-07-28T14:17:58;3.50;;;1.50;;
4096;SDS011;2062;50.694;7.246;2023-07-28T14:20:25;3.65;;;1.27;;
4096;SDS011;2062;50.694;7.246;2023-07-28T14:22:52;5.05;;;1.60;;
4096;SDS011;2062;50.694;7.246;2023-07-28T14:25:18;4.22;;;1.30;;
4096;SDS011;2062;50.694;7.246;2023-07-28T14:27:47;3.88;;;1.33;;
4096;SDS011;2062;50.694;7.246;2023-07-28T14:30:13;3.10;;;1.13;;
4096;SDS011;2062;50.694;7.246;2023-07-28T14:32:40;3.03;;;1.08;;
4096;SDS011;2062;50.694;7.246;2023-07-28T14:35:07;3.47;;;1.30;;
4096;SDS011;2062;50.694;7.246;2023-07-28T14:37:34;3.90;;;1.30;;
4096;SDS011;2062;50.694;7.246;2023-07-28T14:40:00;3.97;;;1.38;;
4096;SDS011;2062;50.694;7.246;2023-07-28T14:42:27;4.33;;;1.20;;
4096;SDS011;2062;50.694;7.246;2023-07-28T14:44:56;3.25;;;1.20;;
4096;SDS011;2062;50.694;7.246;2023-07-28T14:47:23;3.40;;;1.23;;
4096;SDS011;2062;50.694;7.246;2023-07-28T14:49:50;3.47;;;1.30;;
4096;SDS011;2062;50.694;7.246;2023-07-28T14:52:16;4.05;;;1.40;;
4096;SDS011;2062;50.694;7.246;2023-07-28T14:54:43;3.00;;;1.17;;
4096;SDS011;2062;50.694;7.246;2023-07-28T14:57:11;3.75;;;1.27;;
4096;SDS011;2062;50.694;7.246;2023-07-28T14:59:40;3.40;;;1.08;;
4096;SDS011;2062;50.694;7.246;2023-07-28T15:02:08;3.28;;;1.00;;
4096;SDS011;2062;50.694;7.246;2023-07-28T15:04:36;3.47;;;1.13;;
4096;SDS011;2062;50.694;7.246;2023-07-28T15:07:04;3.30;;;1.10;;
4096;SDS011;2062;50.694;7.246;2023-07-28T15:09:32;3.72;;;0.98;;
4096;SDS011;2062;50.694;7.246;2023-07-28T15:11:59;3.03;;;1.10;;
4096;SDS011;2062;50.694;7.246;2023-07-28T15:14:26;3.53;;;1.08;;
4096;SDS011;2062;50.694;7.246;2023-07-28T15:16:53;3.42;;;1.25;;
4096;SDS011;2062;50.694;7.246;2023-07-28T15:19:21;3.00;;;1.00;;
4096;SDS011;2062;50.694;7.246;2023-07-28T15:21:48;3.00;;;1.10;;
4096;SDS011;2062;50.694;7.246;2023-07-28T15:24:15;3.92;;;1.10;;